createdAt,value
2018-09-22T00:01:16.608Z,16.29
2018-09-22T00:03:46.309Z,16.30
2018-09-22T00:06:15.894Z,16.26
2018-09-22T00:08:45.571Z,16.22
2018-09-22T00:11:15.203Z,16.15
2018-09-22T00:13:44.570Z,16.10
2018-09-22T00:16:14.169Z,16.08
2018-09-22T00:18:44.536Z,16.02
2018-09-22T00:21:14.371Z,16.00
2018-09-22T00:23:44.238Z,15.95
2018-09-22T00:26:13.889Z,15.93
2018-09-22T00:28:43.440Z,15.92
2018-09-22T00:31:12.904Z,15.89
2018-09-22T00:33:42.629Z,15.88
2018-09-22T00:36:12.167Z,15.89
2018-09-22T00:38:41.671Z,15.86
2018-09-22T00:41:11.986Z,15.84
2018-09-22T00:43:41.633Z,15.83
2018-09-22T00:46:11.420Z,15.81
2018-09-22T00:48:41.298Z,15.85
2018-09-22T00:51:11.033Z,15.87
2018-09-22T00:53:40.627Z,15.91
2018-09-22T00:56:10.858Z,15.88
2018-09-22T00:58:40.484Z,15.90
2018-09-22T01:01:09.952Z,15.90
2018-09-22T01:03:39.420Z,15.92
2018-09-22T01:06:09.350Z,15.96
2018-09-22T01:08:39.096Z,15.95
2018-09-22T01:11:08.657Z,15.94
2018-09-22T01:13:38.280Z,15.97
2018-09-22T01:16:07.820Z,15.95
2018-09-22T01:18:37.253Z,15.93
2018-09-22T01:21:07.501Z,15.94
2018-09-22T01:23:37.672Z,15.89
2018-09-22T01:26:07.113Z,15.85
2018-09-22T01:28:36.603Z,15.85
2018-09-22T01:31:05.999Z,15.84
2018-09-22T01:33:35.425Z,15.83
2018-09-22T01:36:04.852Z,15.82
2018-09-22T01:38:34.251Z,15.79
2018-09-22T01:41:04.220Z,15.73
2018-09-22T01:43:33.723Z,15.70
2018-09-22T01:46:03.159Z,15.70
2018-09-22T01:48:32.559Z,15.71
2018-09-22T01:51:02.132Z,15.70
2018-09-22T01:53:31.737Z,15.70
2018-09-22T01:56:02.504Z,15.70
2018-09-22T01:58:33.304Z,15.68
2018-09-22T02:01:02.724Z,15.62
2018-09-22T02:03:32.060Z,15.59
2018-09-22T02:06:01.568Z,15.60
2018-09-22T02:08:31.027Z,15.58
2018-09-22T02:11:00.566Z,15.58
2018-09-22T02:13:30.902Z,15.57
2018-09-22T02:16:00.456Z,15.53
2018-09-22T02:18:29.893Z,15.53
2018-09-22T02:20:59.243Z,15.53
2018-09-22T02:23:28.641Z,15.54
2018-09-22T02:25:58.159Z,15.53
2018-09-22T02:28:27.550Z,15.50
2018-09-22T02:30:57.050Z,15.48
2018-09-22T02:33:26.552Z,15.45
2018-09-22T02:35:56.167Z,15.42
2018-09-22T02:38:25.971Z,15.38
2018-09-22T02:41:02.150Z,15.32
2018-09-22T02:43:31.662Z,15.29
2018-09-22T02:46:01.245Z,15.25
2018-09-22T02:48:30.936Z,15.27
2018-09-22T02:51:00.517Z,15.23
2018-09-22T02:53:30.199Z,15.21
2018-09-22T02:55:59.964Z,15.18
2018-09-22T02:58:29.416Z,15.16
2018-09-22T03:00:58.933Z,15.14
2018-09-22T03:03:28.574Z,15.13
2018-09-22T03:05:58.590Z,15.14
2018-09-22T03:08:28.977Z,15.15
2018-09-22T03:10:58.787Z,15.14
2018-09-22T03:13:28.509Z,15.14
2018-09-22T03:15:58.358Z,15.15
2018-09-22T03:18:28.511Z,15.13
2018-09-22T03:21:00.931Z,15.11
2018-09-22T03:23:30.556Z,15.09
2018-09-22T03:26:00.125Z,15.14
2018-09-22T03:28:29.584Z,15.12
2018-09-22T03:30:59.177Z,15.10
2018-09-22T03:33:29.288Z,15.08
2018-09-22T03:36:00.095Z,15.02
2018-09-22T03:38:36.680Z,15.00
2018-09-22T03:41:14.471Z,14.96
2018-09-22T03:43:44.178Z,14.95
2018-09-22T03:46:13.681Z,14.96
2018-09-22T03:48:43.403Z,14.95
2018-09-22T03:51:12.985Z,14.95
2018-09-22T03:53:42.469Z,14.91
2018-09-22T03:56:12.165Z,14.87
2018-09-22T04:01:45.565Z,14.82
2018-09-22T04:04:15.375Z,14.88
2018-09-22T04:06:45.085Z,14.92
2018-09-22T04:09:14.560Z,14.97
2018-09-22T04:11:44.316Z,15.00
2018-09-22T04:14:14.035Z,15.01
2018-09-22T04:16:44.540Z,15.05
2018-09-22T04:19:14.257Z,15.11
2018-09-22T04:21:43.826Z,15.16
2018-09-22T04:24:19.171Z,15.24
2018-09-22T04:26:51.171Z,15.28
2018-09-22T04:29:21.755Z,15.34
2018-09-22T04:31:59.238Z,15.33
2018-09-22T04:34:30.203Z,15.32
2018-09-22T04:36:59.913Z,15.23
2018-09-22T04:39:29.605Z,15.19
2018-09-22T04:41:59.141Z,15.13
2018-09-22T04:44:29.382Z,15.10
2018-09-22T04:46:59.316Z,15.15
2018-09-22T04:49:28.697Z,15.21
2018-09-22T04:51:58.330Z,15.27
2018-09-22T04:54:27.800Z,15.30
2018-09-22T04:56:57.999Z,15.29
2018-09-22T04:59:27.771Z,15.24
2018-09-22T05:02:03.822Z,15.22
2018-09-22T05:04:33.363Z,15.20
2018-09-22T05:07:02.983Z,15.18
2018-09-22T05:09:32.755Z,15.13
2018-09-22T05:12:02.368Z,15.06
2018-09-22T05:14:32.044Z,15.02
2018-09-22T05:17:01.477Z,15.04
2018-09-22T05:19:30.856Z,15.10
2018-09-22T05:22:00.398Z,15.18
2018-09-22T05:24:29.941Z,15.28
2018-09-22T05:26:59.623Z,15.28
2018-09-22T05:29:29.346Z,15.27
2018-09-22T05:31:59.344Z,15.23
2018-09-22T05:34:29.577Z,15.15
2018-09-22T05:36:59.346Z,15.16
2018-09-22T05:39:29.009Z,15.13
2018-09-22T05:41:59.493Z,15.11
2018-09-22T05:44:29.715Z,15.12
2018-09-22T05:46:59.358Z,15.14
2018-09-22T05:49:29.221Z,15.15
2018-09-22T05:52:01.145Z,15.17
2018-09-22T05:54:31.081Z,15.28
2018-09-22T05:57:00.644Z,15.33
2018-09-22T05:59:30.149Z,15.35
2018-09-22T06:01:59.837Z,15.37
2018-09-22T06:04:29.581Z,15.39
2018-09-22T06:06:59.144Z,15.46
2018-09-22T06:09:28.619Z,15.51
2018-09-22T06:11:58.055Z,15.55
2018-09-22T06:14:28.049Z,15.62
2018-09-22T06:16:57.593Z,15.65
2018-09-22T06:19:27.225Z,15.72
2018-09-22T06:21:57.956Z,15.81
2018-09-22T06:24:27.625Z,15.90
2018-09-22T06:26:57.228Z,15.98
2018-09-22T06:29:27.016Z,16.04
2018-09-22T06:31:56.537Z,16.00
2018-09-22T06:34:26.274Z,16.07
2018-09-22T06:36:55.849Z,16.15
2018-09-22T06:39:25.550Z,16.21
2018-09-22T06:41:57.333Z,16.30
2018-09-22T06:44:28.605Z,16.36
2018-09-22T06:46:58.973Z,16.42
2018-09-22T06:49:32.557Z,16.44
2018-09-22T06:52:02.048Z,16.49
2018-09-22T06:54:31.819Z,16.62
2018-09-22T06:57:01.397Z,16.68
2018-09-22T06:59:31.071Z,16.78
2018-09-22T07:02:00.613Z,16.80
2018-09-22T07:04:30.245Z,16.85
2018-09-22T07:07:00.801Z,16.82
2018-09-22T07:09:30.993Z,16.91
2018-09-22T07:12:00.499Z,16.96
2018-09-22T07:14:30.081Z,16.95
2018-09-22T07:16:59.565Z,16.97
2018-09-22T07:19:29.588Z,17.14
2018-09-22T07:22:05.065Z,17.36
2018-09-22T07:24:34.680Z,17.41
2018-09-22T07:27:04.841Z,17.45
2018-09-22T07:29:34.596Z,17.49
2018-09-22T07:32:04.271Z,17.56
2018-09-22T07:34:33.819Z,17.56
2018-09-22T07:37:03.309Z,17.55
2018-09-22T07:39:32.843Z,17.59
2018-09-22T07:42:02.425Z,17.61
2018-09-22T07:44:35.147Z,17.69
2018-09-22T07:47:04.785Z,17.73
2018-09-22T07:49:40.628Z,17.87
2018-09-22T07:52:10.265Z,18.00
2018-09-22T07:54:40.028Z,18.09
2018-09-22T07:57:09.806Z,18.03
2018-09-22T07:59:39.550Z,18.07
2018-09-22T08:02:09.415Z,18.16
2018-09-22T08:04:42.681Z,18.32
2018-09-22T08:07:13.701Z,18.35
2018-09-22T08:09:43.491Z,18.40
2018-09-22T08:12:13.649Z,18.44
2018-09-22T08:14:44.341Z,18.51
2018-09-22T08:17:14.872Z,18.55
2018-09-22T08:19:44.622Z,18.45
2018-09-22T08:22:14.971Z,18.39
2018-09-22T08:24:44.637Z,18.47
2018-09-22T08:27:14.149Z,18.67
2018-09-22T08:29:43.594Z,18.69
2018-09-22T08:32:13.229Z,18.66
2018-09-22T08:34:42.801Z,18.66
2018-09-22T08:37:13.178Z,18.76
2018-09-22T08:39:43.928Z,19.00
2018-09-22T08:42:15.365Z,19.13
2018-09-22T08:44:49.116Z,19.20
2018-09-22T08:47:18.963Z,19.32
2018-09-22T08:49:48.861Z,19.27
2018-09-22T08:52:18.717Z,19.26
2018-09-22T08:54:48.430Z,19.12
2018-09-22T08:57:18.412Z,19.17
2018-09-22T08:59:48.205Z,19.20
2018-09-22T09:02:17.768Z,19.13
2018-09-22T09:04:47.287Z,19.21
2018-09-22T09:07:17.732Z,19.25
2018-09-22T09:09:47.760Z,19.32
2018-09-22T09:12:17.574Z,19.32
2018-09-22T09:14:49.168Z,19.35
2018-09-22T09:17:20.095Z,19.42
2018-09-22T09:19:51.050Z,19.55
2018-09-22T09:22:21.366Z,19.73
2018-09-22T09:24:51.292Z,19.99
2018-09-22T09:27:21.140Z,20.16
2018-09-22T09:29:52.952Z,20.31
2018-09-22T09:32:30.905Z,20.43
2018-09-22T09:35:01.345Z,20.42
2018-09-22T09:37:32.215Z,20.29
2018-09-22T09:40:01.926Z,20.45
2018-09-22T09:42:32.459Z,20.58
2018-09-22T09:45:02.105Z,20.51
2018-09-22T09:47:31.770Z,20.40
2018-09-22T09:50:02.576Z,20.55
2018-09-22T09:52:33.036Z,20.66
2018-09-22T09:55:02.529Z,20.65
2018-09-22T09:57:32.069Z,20.31
2018-09-22T10:00:02.040Z,20.19
2018-09-22T10:02:31.662Z,20.22
2018-09-22T10:05:01.923Z,20.26
2018-09-22T10:07:40.219Z,20.16
2018-09-22T10:10:26.910Z,20.20
2018-09-22T10:12:56.743Z,20.50
2018-09-22T10:15:26.201Z,20.74
2018-09-22T10:17:56.766Z,20.83
2018-09-22T10:20:26.178Z,20.77
2018-09-22T10:22:56.380Z,20.80
2018-09-22T10:25:26.153Z,20.94
2018-09-22T10:27:55.819Z,21.02
2018-09-22T10:30:25.319Z,21.08
2018-09-22T10:32:54.700Z,20.89
2018-09-22T10:35:24.176Z,20.74
2018-09-22T10:37:53.778Z,20.83
2018-09-22T10:40:23.296Z,20.91
2018-09-22T10:42:53.051Z,20.76
2018-09-22T10:45:22.610Z,20.53
2018-09-22T10:47:59.175Z,20.57
2018-09-22T10:50:28.974Z,20.63
2018-09-22T10:52:58.907Z,20.62
2018-09-22T10:55:28.635Z,20.61
2018-09-22T10:58:01.746Z,20.61
2018-09-22T11:00:33.165Z,20.80
2018-09-22T11:03:02.940Z,20.82
2018-09-22T11:05:34.722Z,20.70
2018-09-22T11:08:06.591Z,20.69
2018-09-22T11:10:36.545Z,20.80
2018-09-22T11:13:06.855Z,21.03
2018-09-22T11:15:36.685Z,21.10
2018-09-22T11:18:08.957Z,21.00
2018-09-22T11:20:39.396Z,20.86
2018-09-22T11:23:11.257Z,20.72
2018-09-22T11:25:40.847Z,20.64
2018-09-22T11:28:15.382Z,20.58
2018-09-22T11:30:46.121Z,20.55
2018-09-22T11:33:16.620Z,20.50
2018-09-22T11:35:47.515Z,20.35
2018-09-22T11:38:17.654Z,20.29
2018-09-22T11:40:50.128Z,20.31
2018-09-22T11:43:19.931Z,20.47
2018-09-22T11:45:55.174Z,20.67
2018-09-22T11:48:24.922Z,20.71
2018-09-22T11:50:54.459Z,20.80
2018-09-22T11:53:24.126Z,21.09
2018-09-22T11:55:53.687Z,21.18
2018-09-22T11:58:23.246Z,21.39
2018-09-22T12:00:52.809Z,21.34
2018-09-22T12:03:23.337Z,21.24
2018-09-22T12:05:53.319Z,21.14
2018-09-22T12:08:24.325Z,21.11
2018-09-22T12:10:55.377Z,21.18
2018-09-22T12:13:25.106Z,21.38
2018-09-22T12:15:54.748Z,21.48
2018-09-22T12:18:24.396Z,21.37
2018-09-22T12:20:53.968Z,21.12
2018-09-22T12:23:23.457Z,21.25
2018-09-22T12:25:53.155Z,21.19
2018-09-22T12:28:22.768Z,21.28
2018-09-22T12:30:52.377Z,21.20
2018-09-22T12:33:21.851Z,21.22
2018-09-22T12:35:51.338Z,21.24
2018-09-22T12:38:20.953Z,21.18
2018-09-22T12:40:50.409Z,21.03
2018-09-22T12:43:20.017Z,20.91
2018-09-22T12:45:49.683Z,20.83
2018-09-22T12:48:19.306Z,20.75
2018-09-22T12:50:49.890Z,20.86
2018-09-22T12:53:26.048Z,20.90
2018-09-22T12:55:55.712Z,21.17
2018-09-22T12:58:25.218Z,21.46
2018-09-22T13:00:57.977Z,21.54
2018-09-22T13:03:27.984Z,21.45
2018-09-22T13:05:59.687Z,21.53
2018-09-22T13:08:32.673Z,21.64
2018-09-22T13:11:02.468Z,21.69
2018-09-22T13:13:33.956Z,21.71
2018-09-22T13:16:03.608Z,21.78
2018-09-22T13:18:36.389Z,21.84
2018-09-22T13:21:06.202Z,21.86
2018-09-22T13:23:35.945Z,21.87
2018-09-22T13:26:05.857Z,21.77
2018-09-22T13:28:35.649Z,21.72
2018-09-22T13:31:12.784Z,21.68
2018-09-22T13:33:48.668Z,21.51
2018-09-22T13:36:19.066Z,21.58
2018-09-22T13:38:49.257Z,21.70
2018-09-22T13:41:19.689Z,21.69
2018-09-22T13:43:49.389Z,21.81
2018-09-22T13:46:19.269Z,21.80
2018-09-22T13:48:52.733Z,21.77
2018-09-22T13:51:22.578Z,21.77
2018-09-22T13:53:53.586Z,21.81
2018-09-22T13:56:27.451Z,21.79
2018-09-22T13:58:57.265Z,21.72
2018-09-22T14:01:30.145Z,21.70
2018-09-22T14:03:59.831Z,21.55
2018-09-22T14:06:29.491Z,21.39
2018-09-22T14:08:59.406Z,21.37
2018-09-22T14:11:31.984Z,21.33
2018-09-22T14:14:01.758Z,21.29
2018-09-22T14:16:38.201Z,21.22
2018-09-22T14:19:09.548Z,21.19
2018-09-22T14:21:39.519Z,21.27
2018-09-22T14:24:11.592Z,21.26
2018-09-22T14:26:45.820Z,21.22
2018-09-22T14:29:15.456Z,21.20
2018-09-22T14:31:48.892Z,21.18
2018-09-22T14:34:20.657Z,21.20
2018-09-22T14:36:53.085Z,21.17
2018-09-22T14:39:22.825Z,21.11
2018-09-22T14:41:52.639Z,21.13
2018-09-22T14:44:22.406Z,21.06
2018-09-22T14:46:52.680Z,21.08
2018-09-22T14:49:22.306Z,21.08
2018-09-22T14:51:52.160Z,21.05
2018-09-22T14:54:23.207Z,21.06
2018-09-22T14:56:53.106Z,21.13
2018-09-22T14:59:23.227Z,21.23
2018-09-22T15:01:52.909Z,21.21
2018-09-22T15:04:22.396Z,21.20
2018-09-22T15:06:52.159Z,21.18
2018-09-22T15:09:21.699Z,21.11
2018-09-22T15:11:58.553Z,21.06
2018-09-22T15:14:31.003Z,21.07
2018-09-22T15:17:14.140Z,21.13
2018-09-22T15:19:46.921Z,21.03
2018-09-22T15:22:22.334Z,20.89
2018-09-22T15:25:00.515Z,20.87
2018-09-22T15:27:30.858Z,20.86
2018-09-22T15:30:05.495Z,20.89
2018-09-22T15:32:39.606Z,20.91
2018-09-22T15:35:10.956Z,20.82
2018-09-22T15:37:58.200Z,20.72
2018-09-22T15:40:32.614Z,20.75
2018-09-22T15:43:02.339Z,20.83
2018-09-22T15:45:44.949Z,20.85
2018-09-22T15:48:21.525Z,20.82
2018-09-22T15:50:53.039Z,20.79
2018-09-22T15:53:27.826Z,20.79
2018-09-22T15:56:00.622Z,20.75
2018-09-22T15:58:31.757Z,20.71
2018-09-22T16:01:01.784Z,20.67
2018-09-22T16:03:32.384Z,20.65
2018-09-22T16:06:05.724Z,20.65
2018-09-22T16:08:37.490Z,20.70
2018-09-22T16:11:08.218Z,20.62
2018-09-22T16:13:37.854Z,20.51
2018-09-22T16:16:09.117Z,20.50
2018-09-22T16:18:39.877Z,20.47
2018-09-22T16:21:09.658Z,20.47
2018-09-22T16:23:40.182Z,20.38
2018-09-22T16:26:11.120Z,20.32
2018-09-22T16:28:40.884Z,20.24
2018-09-22T16:31:10.606Z,20.22
2018-09-22T16:33:40.195Z,20.24
2018-09-22T16:36:10.347Z,20.24
2018-09-22T16:38:40.451Z,20.18
2018-09-22T16:41:10.635Z,20.14
2018-09-22T16:43:41.701Z,20.12
2018-09-22T16:46:11.220Z,20.11
2018-09-22T16:48:42.330Z,20.05
2018-09-22T16:51:12.381Z,20.01
2018-09-22T16:53:42.380Z,19.98
2018-09-22T16:56:15.972Z,19.99
2018-09-22T16:58:47.375Z,19.99
2018-09-22T17:01:17.579Z,19.96
2018-09-22T17:03:48.791Z,19.89
2018-09-22T17:06:18.736Z,19.87
2018-09-22T17:08:49.423Z,19.86
2018-09-22T17:11:19.221Z,19.86
2018-09-22T17:13:55.338Z,19.86
2018-09-22T17:16:25.225Z,19.83
2018-09-22T17:18:54.870Z,19.81
2018-09-22T17:21:24.594Z,19.78
2018-09-22T17:23:54.395Z,19.73
2018-09-22T17:26:24.054Z,19.67
2018-09-22T17:28:53.819Z,19.64
2018-09-22T17:31:23.442Z,19.66
2018-09-22T17:33:53.100Z,19.66
2018-09-22T17:36:23.568Z,19.67
2018-09-22T17:38:53.477Z,19.70
2018-09-22T17:41:23.293Z,19.73
2018-09-22T17:43:53.085Z,19.72
2018-09-22T17:46:22.766Z,19.73
2018-09-22T17:48:53.477Z,19.72
2018-09-22T17:51:25.095Z,19.64
2018-09-22T17:53:54.640Z,19.62
2018-09-22T17:56:24.108Z,19.61
2018-09-22T17:58:54.585Z,19.58
2018-09-22T18:01:24.285Z,19.54
2018-09-22T18:03:57.551Z,19.56
2018-09-22T18:06:27.187Z,19.53
2018-09-22T18:08:57.569Z,19.54
2018-09-22T18:11:27.464Z,19.57
2018-09-22T18:13:57.237Z,19.57
2018-09-22T18:16:26.944Z,19.51
2018-09-22T18:18:58.189Z,19.48
2018-09-22T18:21:27.999Z,19.47
2018-09-22T18:23:57.730Z,19.49
2018-09-22T18:26:42.198Z,19.45
2018-09-22T18:29:12.674Z,19.39
2018-09-22T18:31:42.439Z,19.37
2018-09-22T18:34:12.676Z,19.32
2018-09-22T18:36:43.154Z,19.28
2018-09-22T18:39:14.450Z,19.28
2018-09-22T18:41:45.187Z,19.28
2018-09-22T18:44:15.026Z,19.24
2018-09-22T18:46:44.655Z,19.21
2018-09-22T18:49:14.517Z,19.14
2018-09-22T18:51:44.451Z,19.12
2018-09-22T18:54:14.109Z,19.11
2018-09-22T18:56:43.744Z,19.11
2018-09-22T18:59:13.460Z,19.05
2018-09-22T19:01:43.626Z,19.02
2018-09-22T19:04:13.183Z,19.00
2018-09-22T19:06:43.052Z,19.00
2018-09-22T19:09:12.656Z,19.00
2018-09-22T19:11:42.213Z,19.02
2018-09-22T19:14:17.155Z,19.02
2018-09-22T19:16:53.333Z,19.01
2018-09-22T19:19:37.228Z,19.06
2018-09-22T19:22:12.607Z,19.11
2018-09-22T19:24:49.823Z,19.13
2018-09-22T19:27:27.149Z,19.11
2018-09-22T19:30:34.194Z,19.09
2018-09-22T19:33:10.030Z,18.97
2018-09-22T19:35:43.793Z,18.95
2018-09-22T19:38:18.555Z,18.93
2018-09-22T19:40:53.277Z,18.85
2018-09-22T19:43:31.837Z,18.75
2018-09-22T19:46:07.313Z,18.67
2018-09-22T19:48:44.977Z,18.64
2018-09-22T19:51:17.141Z,18.64
2018-09-22T19:53:48.694Z,18.63
2018-09-22T19:56:20.036Z,18.62
2018-09-22T19:58:50.472Z,18.61
2018-09-22T20:01:20.176Z,18.60
2018-09-22T20:03:50.869Z,18.58
2018-09-22T20:06:22.667Z,18.50
2018-09-22T20:08:54.581Z,18.44
2018-09-22T20:11:24.999Z,18.42
2018-09-22T20:13:54.880Z,18.40
2018-09-22T20:16:26.897Z,18.37
2018-09-22T20:19:01.800Z,18.34
2018-09-22T20:21:35.709Z,18.29
2018-09-22T20:24:07.329Z,18.29
2018-09-22T20:26:38.039Z,18.30
2018-09-22T20:29:08.949Z,18.28
2018-09-22T20:31:38.958Z,18.20
2018-09-22T20:34:10.135Z,18.20
2018-09-22T20:36:42.467Z,18.17
2018-09-22T20:39:14.187Z,18.14
2018-09-22T20:41:48.004Z,18.21
2018-09-22T20:44:19.481Z,18.24
2018-09-22T20:46:52.877Z,18.23
2018-09-22T20:49:22.444Z,18.23
2018-09-22T20:51:52.026Z,18.15
2018-09-22T20:54:21.549Z,18.05
2018-09-22T20:56:51.053Z,17.93
2018-09-22T20:59:20.670Z,17.89
2018-09-22T21:01:50.244Z,17.87
2018-09-22T21:04:19.825Z,17.83
2018-09-22T21:06:50.304Z,17.82
2018-09-22T21:09:19.780Z,17.79
2018-09-22T21:11:49.216Z,17.84
2018-09-22T21:14:19.584Z,17.81
2018-09-22T21:16:49.257Z,17.74
2018-09-22T21:19:19.112Z,17.68
2018-09-22T21:21:49.463Z,17.62
2018-09-22T21:24:19.956Z,17.59
2018-09-22T21:26:50.223Z,17.53
2018-09-22T21:29:22.462Z,17.45
2018-09-22T21:31:52.124Z,17.51
2018-09-22T21:34:22.136Z,17.48
2018-09-22T21:36:53.887Z,17.42
2018-09-22T21:39:26.588Z,17.45
2018-09-22T21:41:56.432Z,17.40
2018-09-22T21:44:27.058Z,17.40
2018-09-22T21:46:58.310Z,17.32
2018-09-22T21:49:29.003Z,17.36
2018-09-22T21:51:58.588Z,17.42
2018-09-22T21:54:28.871Z,17.42
2018-09-22T21:56:58.551Z,17.37
2018-09-22T21:59:28.237Z,17.37
2018-09-22T22:01:58.620Z,17.37
2018-09-22T22:04:28.300Z,17.36
2018-09-22T22:06:57.822Z,17.36
2018-09-22T22:09:27.444Z,17.36
2018-09-22T22:11:57.222Z,17.33
2018-09-22T22:14:28.992Z,17.26
2018-09-22T22:16:59.411Z,17.26
2018-09-22T22:19:29.752Z,17.25
2018-09-22T22:22:02.150Z,17.19
2018-09-22T22:24:32.013Z,17.14
2018-09-22T22:27:05.102Z,17.19
2018-09-22T22:29:39.968Z,17.23
2018-09-22T22:32:14.039Z,17.24
2018-09-22T22:34:43.851Z,17.23
2018-09-22T22:37:14.378Z,17.11
2018-09-22T22:39:45.949Z,17.02
2018-09-22T22:42:15.519Z,16.96
2018-09-22T22:44:47.861Z,16.90
2018-09-22T22:47:17.524Z,16.90
2018-09-22T22:49:53.877Z,16.87
2018-09-22T22:52:23.754Z,16.84
2018-09-22T22:54:53.237Z,16.79
2018-09-22T22:57:22.853Z,16.73
2018-09-22T22:59:55.220Z,16.71
2018-09-22T23:02:27.751Z,16.64
2018-09-22T23:04:57.282Z,16.54
2018-09-22T23:07:27.907Z,16.50
2018-09-22T23:10:01.704Z,16.49
2018-09-22T23:12:36.429Z,16.48
2018-09-22T23:15:06.161Z,16.46
2018-09-22T23:17:36.357Z,16.42
2018-09-22T23:20:05.911Z,16.43
2018-09-22T23:22:37.493Z,16.41
2018-09-22T23:25:07.792Z,16.40
2018-09-22T23:27:37.362Z,16.39
2018-09-22T23:30:11.564Z,16.41
2018-09-22T23:32:42.418Z,16.40
2018-09-22T23:35:12.122Z,16.36
2018-09-22T23:37:42.865Z,16.28
2018-09-22T23:40:13.693Z,16.22
2018-09-22T23:42:44.031Z,16.17
2018-09-22T23:45:15.703Z,16.18
2018-09-22T23:47:46.607Z,16.19
2018-09-22T23:53:55.112Z,15.98
2018-09-22T23:56:25.399Z,15.99
2018-09-22T23:58:55.019Z,15.97
